KPVW

Hale County Airport

Plainview, Texas, USA
KPVW 251720Z 2518/2618 03015KT P6SM SCT070 FM260100 VRB05KT P6SM FEW250 FM261300 17005KT P6SM FEW250
Issued Valid From Valid To
Apr-25 @ 17:20 UTC
(43 minutes ago)
Apr-25 @ 18:00 UTC
(3 minutes ago)
Apr-26 @ 18:00 UTC
(in 24 hours)
Apr-25 @ 18:00 to Apr-26 @ 01:00
KPVW 251720Z 2518/2618 03015KT P6SM SCT070
Wind Visibility Clouds
30° at 15 knots Greater than 6 miles
  • Scattered at 7,000' AGL
From Apr-26 @ 01:00 to Apr-26 @ 13:00
FM260100 VRB05KT P6SM FEW250
Wind Visibility Clouds
Variable at 5 knots Greater than 6 miles
  • Few at 25,000' AGL
From Apr-26 @ 13:00 to Apr-26 @ 18:00
FM261300 17005KT P6SM FEW250
Wind Visibility Clouds
170° at 5 knots Greater than 6 miles
  • Few at 25,000' AGL
KPVW 251720Z 2518/2618 03015KT P6SM SCT070 FM260100 VRB05KT P6SM FEW250 FM261300 17005KT P6SM FEW250
Issued Apr-25 @ 17:20 UTC
(43 minutes ago)
Valid From Apr-25 @ 18:00 UTC
(3 minutes ago)
Valid To Apr-26 @ 18:00 UTC
(in 24 hours)
Apr-25 @ 18:00 - Apr-26 @ 01:00
Wind Visibility
30° at 15 knots Greater than 6 miles
Clouds
  • Scattered at 7,000' AGL
From Apr-26 @ 01:00 - Apr-26 @ 13:00
Wind Visibility
Variable at 5 knots Greater than 6 miles
Clouds
  • Few at 25,000' AGL
From Apr-26 @ 13:00 - Apr-26 @ 18:00
Wind Visibility
170° at 5 knots Greater than 6 miles
Clouds
  • Few at 25,000' AGL